createdAt,value
2022-12-06T00:00:31.748Z,53.25
2022-12-06T00:03:37.625Z,47.97
2022-12-06T00:06:47.539Z,49.17
2022-12-06T00:09:52.719Z,47.47
2022-12-06T00:12:58.063Z,51.50
2022-12-06T00:16:05.095Z,46.72
2022-12-06T00:19:14.176Z,86.78
2022-12-06T00:22:19.218Z,103.38
2022-12-06T00:25:24.057Z,106.32
2022-12-06T00:28:28.922Z,82.13
2022-12-06T00:31:35.597Z,76.50
2022-12-06T00:34:40.686Z,95.75
2022-12-06T00:37:45.594Z,109.80
2022-12-06T00:40:51.885Z,114.45
2022-12-06T00:43:58.325Z,98.20
2022-12-06T00:47:04.585Z,108.00
2022-12-06T00:50:10.663Z,83.82
2022-12-06T00:53:16.263Z,85.30
2022-12-06T00:56:21.749Z,71.05
2022-12-06T00:59:28.394Z,69.32
2022-12-06T01:02:35.005Z,75.05
2022-12-06T01:05:48.357Z,76.82
2022-12-06T01:08:54.845Z,82.95
2022-12-06T01:11:59.900Z,85.40
2022-12-06T01:15:05.423Z,88.50
2022-12-06T01:18:10.404Z,82.18
2022-12-06T01:21:17.978Z,87.72
2022-12-06T01:24:22.925Z,87.65
2022-12-06T01:27:28.110Z,103.95
2022-12-06T01:30:33.433Z,116.78
2022-12-06T01:33:38.492Z,116.53
2022-12-06T01:36:44.053Z,117.25
2022-12-06T01:39:49.028Z,113.68
2022-12-06T01:42:53.772Z,120.35
2022-12-06T01:46:02.907Z,119.10
2022-12-06T01:49:13.856Z,121.35
2022-12-06T01:52:19.281Z,110.35
2022-12-06T01:55:28.704Z,101.32
2022-12-06T01:58:38.393Z,100.18
2022-12-06T02:01:43.656Z,115.93
2022-12-06T02:04:49.276Z,110.50
2022-12-06T02:07:55.081Z,100.25
2022-12-06T02:11:02.456Z,104.35
2022-12-06T02:14:13.000Z,82.40
2022-12-06T02:17:58.436Z,81.43
2022-12-06T02:21:47.036Z,82.50
2022-12-06T02:25:11.117Z,82.85
2022-12-06T02:28:40.753Z,87.57
2022-12-06T02:32:16.182Z,84.03
2022-12-06T02:35:34.874Z,102.25
2022-12-06T02:38:48.575Z,94.88
2022-12-06T02:42:05.272Z,88.43
2022-12-06T02:45:14.717Z,86.15
2022-12-06T02:48:21.533Z,83.47
2022-12-06T02:51:28.068Z,81.63
2022-12-06T02:54:33.245Z,65.15
2022-12-06T02:57:44.915Z,54.92
2022-12-06T03:01:03.633Z,48.70
2022-12-06T03:04:46.471Z,62.50
2022-12-06T03:07:51.946Z,73.10
2022-12-06T03:11:00.937Z,80.38
2022-12-06T03:14:14.518Z,75.78
2022-12-06T03:17:24.940Z,76.63
2022-12-06T03:21:09.014Z,64.07
2022-12-06T03:24:16.032Z,51.88
2022-12-06T03:27:22.833Z,44.17
2022-12-06T03:30:30.836Z,45.30
2022-12-06T03:33:40.364Z,49.50
2022-12-06T03:36:47.167Z,47.65
2022-12-06T03:40:07.300Z,46.22
2022-12-06T03:43:12.340Z,49.90
2022-12-06T03:46:35.217Z,47.40
2022-12-06T03:49:45.304Z,51.22
2022-12-06T03:52:53.951Z,48.90
2022-12-06T03:55:59.770Z,54.72
2022-12-06T03:59:06.826Z,49.38
2022-12-06T04:02:11.800Z,53.67
2022-12-06T04:05:17.044Z,52.65
2022-12-06T04:08:22.385Z,53.38
2022-12-06T04:11:27.143Z,46.00
2022-12-06T04:14:39.229Z,49.33
2022-12-06T04:18:03.289Z,42.13
2022-12-06T04:21:26.866Z,50.22
2022-12-06T04:24:31.924Z,61.47
2022-12-06T04:27:56.095Z,71.63
2022-12-06T04:31:22.541Z,74.28
2022-12-06T04:34:47.012Z,70.10
2022-12-06T04:38:11.032Z,71.88
2022-12-06T04:41:36.472Z,66.18
2022-12-06T04:44:42.067Z,71.50
2022-12-06T04:47:47.752Z,69.50
2022-12-06T04:50:52.805Z,73.15
2022-12-06T04:53:57.682Z,70.47
2022-12-06T04:57:03.806Z,71.13
2022-12-06T05:00:09.664Z,73.35
2022-12-06T05:03:14.912Z,69.15
2022-12-06T05:06:19.881Z,69.53
2022-12-06T05:09:25.186Z,69.28
2022-12-06T05:12:29.964Z,72.95
2022-12-06T05:15:34.981Z,64.85
2022-12-06T05:18:39.834Z,61.83
2022-12-06T05:21:44.772Z,60.22
2022-12-06T05:24:49.504Z,60.65
2022-12-06T05:27:54.163Z,57.13
2022-12-06T05:30:59.002Z,69.30
2022-12-06T05:34:03.966Z,66.32
2022-12-06T05:37:08.908Z,56.45
2022-12-06T05:40:13.788Z,71.15
2022-12-06T05:43:18.973Z,73.93
2022-12-06T05:46:23.786Z,73.78
2022-12-06T05:49:28.760Z,68.32
2022-12-06T05:52:33.712Z,71.32
2022-12-06T05:55:38.864Z,69.57
2022-12-06T05:58:43.523Z,70.13
2022-12-06T06:01:48.348Z,68.47
2022-12-06T06:04:53.314Z,65.13
2022-12-06T06:07:58.573Z,73.93
2022-12-06T06:11:03.712Z,67.50
2022-12-06T06:14:08.630Z,62.75
2022-12-06T06:17:13.512Z,64.05
2022-12-06T06:20:18.614Z,62.50
2022-12-06T06:23:24.245Z,56.53
2022-12-06T06:26:29.748Z,51.13
2022-12-06T06:29:35.004Z,51.03
2022-12-06T06:32:40.191Z,48.00
2022-12-06T06:35:44.768Z,49.17
2022-12-06T06:38:49.570Z,48.92
2022-12-06T06:41:54.423Z,52.08
2022-12-06T06:44:59.168Z,61.40
2022-12-06T06:48:03.956Z,48.08
2022-12-06T06:51:13.450Z,48.63
2022-12-06T06:54:18.884Z,43.38
2022-12-06T06:57:23.786Z,44.58
2022-12-06T07:00:29.122Z,46.60
2022-12-06T07:03:35.107Z,41.15
2022-12-06T07:06:39.945Z,40.90
2022-12-06T07:09:44.858Z,40.08
2022-12-06T07:12:50.420Z,40.17
2022-12-06T07:15:56.069Z,38.65
2022-12-06T07:19:04.749Z,41.85
2022-12-06T07:22:13.894Z,40.33
2022-12-06T07:25:18.732Z,47.03
2022-12-06T07:28:24.011Z,43.17
2022-12-06T07:31:30.701Z,39.30
2022-12-06T07:34:35.915Z,36.63
2022-12-06T07:37:45.121Z,40.45
2022-12-06T07:41:04.426Z,37.88
2022-12-06T07:44:32.499Z,35.85
2022-12-06T07:47:43.698Z,37.03
2022-12-06T07:50:48.435Z,37.70
2022-12-06T07:53:53.611Z,35.85
2022-12-06T07:56:58.702Z,37.83
2022-12-06T08:00:07.499Z,38.70
2022-12-06T08:03:17.677Z,40.35
2022-12-06T08:06:23.528Z,49.95
2022-12-06T08:09:28.646Z,64.82
2022-12-06T08:12:33.556Z,57.03
2022-12-06T08:15:41.594Z,53.30
2022-12-06T08:18:46.331Z,56.70
2022-12-06T08:21:51.635Z,53.50
2022-12-06T08:24:56.339Z,48.00
2022-12-06T08:28:01.305Z,44.25
2022-12-06T08:31:16.861Z,51.22
2022-12-06T08:34:21.675Z,48.67
2022-12-06T08:37:26.518Z,44.20
2022-12-06T08:40:31.564Z,45.08
2022-12-06T08:43:36.376Z,41.05
2022-12-06T08:46:41.244Z,45.85
2022-12-06T08:49:46.396Z,46.35
2022-12-06T08:52:51.041Z,49.75
2022-12-06T08:56:02.099Z,59.58
2022-12-06T08:59:07.351Z,62.17
2022-12-06T09:02:13.011Z,63.40
2022-12-06T09:05:17.891Z,52.40
2022-12-06T09:08:22.900Z,46.10
2022-12-06T09:11:28.040Z,40.80
2022-12-06T09:14:32.982Z,43.15
2022-12-06T09:17:37.879Z,39.25
2022-12-06T09:20:42.938Z,37.33
2022-12-06T09:23:48.326Z,38.60
2022-12-06T09:26:53.610Z,30.08
2022-12-06T09:29:59.142Z,29.42
2022-12-06T09:33:04.530Z,49.78
2022-12-06T09:36:16.630Z,47.47
2022-12-06T09:39:35.486Z,76.55
2022-12-06T09:43:04.870Z,58.53
2022-12-06T09:46:40.933Z,61.35
2022-12-06T09:50:16.943Z,58.83
2022-12-06T09:53:37.772Z,61.30
2022-12-06T09:57:12.837Z,65.63
2022-12-06T10:00:23.107Z,54.83
2022-12-06T10:04:04.726Z,51.45
2022-12-06T10:07:25.228Z,50.45
2022-12-06T10:10:52.072Z,44.38
2022-12-06T10:14:09.724Z,32.95
2022-12-06T10:17:41.715Z,32.92
2022-12-06T10:21:01.533Z,25.38
2022-12-06T10:24:33.659Z,22.20
2022-12-06T10:27:40.785Z,19.95
2022-12-06T10:30:54.478Z,20.77
2022-12-06T10:34:11.743Z,22.33
2022-12-06T10:37:41.258Z,22.10
2022-12-06T10:41:16.298Z,15.75
2022-12-06T10:44:44.714Z,15.75
2022-12-06T10:47:51.081Z,13.70
2022-12-06T10:51:04.354Z,10.77
2022-12-06T10:54:23.220Z,10.43
2022-12-06T10:58:08.369Z,126.95
2022-12-06T11:01:22.316Z,284.52
2022-12-06T11:04:35.233Z,267.83
2022-12-06T11:07:44.490Z,254.40
2022-12-06T11:10:50.727Z,101.80
2022-12-06T11:14:21.779Z,52.72
2022-12-06T11:17:29.954Z,140.45
2022-12-06T11:21:46.379Z,41.70
2022-12-06T11:25:14.843Z,31.30
2022-12-06T11:28:45.242Z,89.25
2022-12-06T11:31:57.709Z,113.18
2022-12-06T11:35:02.749Z,91.35
2022-12-06T11:38:07.654Z,69.65
2022-12-06T11:41:31.143Z,68.05
2022-12-06T11:44:49.277Z,73.75
2022-12-06T11:47:57.007Z,111.57
2022-12-06T11:51:02.135Z,47.55
2022-12-06T11:54:28.259Z,58.28
2022-12-06T11:57:38.922Z,56.85
2022-12-06T12:00:59.916Z,197.70
2022-12-06T12:04:39.530Z,67.60
2022-12-06T12:07:58.859Z,46.60
2022-12-06T12:11:04.483Z,52.17
2022-12-06T12:14:25.398Z,52.08
2022-12-06T12:17:31.464Z,54.95
2022-12-06T12:20:45.410Z,48.55
2022-12-06T12:23:50.246Z,48.70
2022-12-06T12:26:55.046Z,50.05
2022-12-06T12:30:19.582Z,53.50
2022-12-06T12:33:28.915Z,51.15
2022-12-06T12:36:33.796Z,50.70
2022-12-06T12:39:52.579Z,50.67
2022-12-06T12:43:05.399Z,55.97
2022-12-06T12:46:10.372Z,63.00
2022-12-06T12:49:35.953Z,58.83
2022-12-06T12:52:42.430Z,63.58
2022-12-06T12:55:47.660Z,64.88
2022-12-06T12:58:55.248Z,64.43
2022-12-06T13:02:27.425Z,80.07
2022-12-06T13:05:45.017Z,44.83
2022-12-06T13:08:52.273Z,38.20
2022-12-06T13:12:19.277Z,37.67
2022-12-06T13:15:39.547Z,54.25
2022-12-06T13:18:52.427Z,49.33
2022-12-06T13:21:57.826Z,73.93
2022-12-06T13:25:07.366Z,73.10
2022-12-06T13:28:19.378Z,35.63
2022-12-06T13:31:29.271Z,31.80
2022-12-06T13:34:49.936Z,159.18
2022-12-06T13:38:22.715Z,51.40
2022-12-06T13:41:52.824Z,37.42
2022-12-06T13:44:59.771Z,37.03
2022-12-06T13:48:24.903Z,42.90
2022-12-06T13:51:34.406Z,37.80
2022-12-06T13:54:39.373Z,38.80
2022-12-06T13:57:44.280Z,38.85
2022-12-06T14:00:50.221Z,26.13
2022-12-06T14:03:56.566Z,20.25
2022-12-06T14:10:14.458Z,60.83
2022-12-06T14:13:21.171Z,32.17
2022-12-06T14:16:46.458Z,35.65
2022-12-06T14:19:51.721Z,70.18
2022-12-06T14:22:57.191Z,57.63
2022-12-06T14:26:19.512Z,43.65
2022-12-06T14:29:25.225Z,45.17
2022-12-06T14:32:42.469Z,294.23
2022-12-06T14:35:52.563Z,133.60
2022-12-06T14:39:16.207Z,20.48
2022-12-06T14:42:40.854Z,16.50
2022-12-06T14:45:46.716Z,15.57
2022-12-06T14:49:10.156Z,17.60
2022-12-06T14:52:30.496Z,13.40
2022-12-06T14:55:59.781Z,14.68
2022-12-06T14:59:11.097Z,16.58
2022-12-06T15:02:28.734Z,21.30
2022-12-06T15:05:41.653Z,19.92
2022-12-06T15:08:55.150Z,15.77
2022-12-06T15:12:41.683Z,12.75
2022-12-06T15:15:47.740Z,20.88
2022-12-06T15:19:00.346Z,21.20
2022-12-06T15:22:13.276Z,19.20
2022-12-06T15:25:18.381Z,15.43
2022-12-06T15:28:23.278Z,18.13
2022-12-06T15:31:29.033Z,21.13
2022-12-06T15:34:37.809Z,16.60
2022-12-06T15:37:47.407Z,30.33
2022-12-06T15:40:57.966Z,19.92
2022-12-06T15:44:03.035Z,28.73
2022-12-06T15:47:11.150Z,39.30
2022-12-06T15:50:15.895Z,20.92
2022-12-06T15:53:22.981Z,19.10
2022-12-06T15:56:30.015Z,18.85
2022-12-06T15:59:35.013Z,24.25
2022-12-06T16:02:39.880Z,24.00
2022-12-06T16:05:45.171Z,26.67
2022-12-06T16:08:50.371Z,20.08
2022-12-06T16:11:56.455Z,19.85
2022-12-06T16:15:01.297Z,19.80
2022-12-06T16:18:06.788Z,21.20
2022-12-06T16:21:27.571Z,25.58
2022-12-06T16:24:33.904Z,41.05
2022-12-06T16:27:39.049Z,40.88
2022-12-06T16:30:44.093Z,34.00
2022-12-06T16:33:48.751Z,27.50
2022-12-06T16:37:04.710Z,27.73
2022-12-06T16:40:23.352Z,24.60
2022-12-06T16:43:28.576Z,25.15
2022-12-06T16:46:36.419Z,26.75
2022-12-06T16:49:46.370Z,31.25
2022-12-06T16:52:52.487Z,30.98
2022-12-06T16:55:57.337Z,33.20
2022-12-06T16:59:01.994Z,24.33
2022-12-06T17:02:29.512Z,22.92
2022-12-06T17:05:34.545Z,28.65
2022-12-06T17:08:39.328Z,21.05
2022-12-06T17:12:02.817Z,23.05
2022-12-06T17:15:09.079Z,32.00
2022-12-06T17:18:13.804Z,36.80
2022-12-06T17:21:19.038Z,27.10
2022-12-06T17:24:26.330Z,30.50
2022-12-06T17:27:31.141Z,39.65
2022-12-06T17:30:35.833Z,42.83
2022-12-06T17:33:40.579Z,51.38
2022-12-06T17:36:45.573Z,42.97
2022-12-06T17:39:50.653Z,45.65
2022-12-06T17:43:01.479Z,47.83
2022-12-06T17:46:09.543Z,55.72
2022-12-06T17:49:18.274Z,49.70
2022-12-06T17:52:23.315Z,52.85
2022-12-06T17:55:28.487Z,50.25
2022-12-06T17:58:33.486Z,53.17
2022-12-06T18:02:12.968Z,49.35
2022-12-06T18:05:05.017Z,36.53
2022-12-06T18:08:10.380Z,43.00
2022-12-06T18:11:16.755Z,35.05
2022-12-06T18:14:21.735Z,32.55
2022-12-06T18:17:26.602Z,34.13
2022-12-06T18:20:31.480Z,33.13
2022-12-06T18:23:40.939Z,29.80
2022-12-06T18:26:53.445Z,28.13
2022-12-06T18:29:58.286Z,26.95
2022-12-06T18:33:06.114Z,26.15
2022-12-06T18:36:11.087Z,24.25
2022-12-06T18:39:24.155Z,22.33
2022-12-06T18:42:29.354Z,18.48
2022-12-06T18:45:34.196Z,17.80
2022-12-06T18:48:43.566Z,18.83
2022-12-06T18:51:48.780Z,17.25
2022-12-06T18:54:53.379Z,15.27
2022-12-06T18:57:58.442Z,20.08
2022-12-06T19:01:18.671Z,15.77
2022-12-06T19:04:24.049Z,19.52
2022-12-06T19:07:28.767Z,15.50
2022-12-06T19:10:34.072Z,16.58
2022-12-06T19:13:39.154Z,17.42
2022-12-06T19:16:48.659Z,18.35
2022-12-06T19:19:53.698Z,26.40
2022-12-06T19:22:58.341Z,29.90
2022-12-06T19:26:04.088Z,28.63
2022-12-06T19:29:09.214Z,23.08
2022-12-06T19:32:13.985Z,19.35
2022-12-06T19:35:18.871Z,19.60
2022-12-06T19:38:24.894Z,21.05
2022-12-06T19:41:30.676Z,21.02
2022-12-06T19:44:35.379Z,18.95
2022-12-06T19:47:40.345Z,16.45
2022-12-06T19:50:45.377Z,19.05
2022-12-06T19:53:50.374Z,16.10
2022-12-06T19:56:57.161Z,15.82
2022-12-06T20:00:02.425Z,15.68
2022-12-06T20:03:17.312Z,17.35
2022-12-06T20:06:26.124Z,15.95
2022-12-06T20:09:33.207Z,12.05
2022-12-06T20:12:38.463Z,12.05
2022-12-06T20:15:43.811Z,9.05
2022-12-06T20:18:48.778Z,11.07
2022-12-06T20:21:53.600Z,11.20
2022-12-06T20:24:58.119Z,10.80
2022-12-06T20:28:03.187Z,9.27
2022-12-06T20:31:13.622Z,10.80
2022-12-06T20:34:19.256Z,8.82
2022-12-06T20:37:24.379Z,12.00
2022-12-06T20:40:31.821Z,8.60
2022-12-06T20:43:40.719Z,6.70
2022-12-06T20:46:48.201Z,8.45
2022-12-06T20:49:53.659Z,9.25
2022-12-06T20:52:59.030Z,8.35
2022-12-06T20:56:07.428Z,8.73
2022-12-06T20:59:12.636Z,10.63
2022-12-06T21:02:17.388Z,11.00
2022-12-06T21:05:22.079Z,14.80
2022-12-06T21:08:27.167Z,7.30
2022-12-06T21:11:33.690Z,6.97
2022-12-06T21:14:38.670Z,5.72
2022-12-06T21:17:43.622Z,8.07
2022-12-06T21:20:48.719Z,6.72
2022-12-06T21:23:53.803Z,7.72
2022-12-06T21:26:58.755Z,7.10
2022-12-06T21:30:04.542Z,7.40
2022-12-06T21:33:09.807Z,5.32
2022-12-06T21:36:14.717Z,6.45
2022-12-06T21:39:19.726Z,8.50
2022-12-06T21:42:24.766Z,8.60
2022-12-06T21:45:29.613Z,8.77
2022-12-06T21:48:35.079Z,7.13
2022-12-06T21:51:39.943Z,8.23
2022-12-06T21:54:44.946Z,10.00
2022-12-06T21:57:49.899Z,8.85
2022-12-06T22:00:54.864Z,10.25
2022-12-06T22:04:03.075Z,6.03
2022-12-06T22:07:08.211Z,7.38
2022-12-06T22:10:13.049Z,6.22
2022-12-06T22:13:18.477Z,9.05
2022-12-06T22:16:23.605Z,7.55
2022-12-06T22:19:28.676Z,6.60
2022-12-06T22:22:33.770Z,6.13
2022-12-06T22:25:39.667Z,8.20
2022-12-06T22:28:44.875Z,6.28
2022-12-06T22:31:50.150Z,6.25
2022-12-06T22:34:54.888Z,6.15
2022-12-06T22:37:59.808Z,6.03
2022-12-06T22:41:05.805Z,4.97
2022-12-06T22:44:11.739Z,7.22
2022-12-06T22:47:16.997Z,6.35
2022-12-06T22:50:21.883Z,9.13
2022-12-06T22:53:26.434Z,8.50
2022-12-06T22:56:35.532Z,6.55
2022-12-06T22:59:40.324Z,8.10
2022-12-06T23:02:45.123Z,5.07
2022-12-06T23:05:59.820Z,6.75
2022-12-06T23:09:06.988Z,8.50
2022-12-06T23:12:11.885Z,6.40
2022-12-06T23:15:16.870Z,6.60
2022-12-06T23:18:22.034Z,7.43
2022-12-06T23:21:32.991Z,6.90
2022-12-06T23:24:37.676Z,6.18
2022-12-06T23:27:42.651Z,6.60
2022-12-06T23:30:47.595Z,7.38
2022-12-06T23:33:58.040Z,5.60
2022-12-06T23:37:03.748Z,8.05
2022-12-06T23:40:09.456Z,6.60
2022-12-06T23:43:14.523Z,6.15
2022-12-06T23:46:23.243Z,6.95
2022-12-06T23:49:28.150Z,6.50
2022-12-06T23:52:32.927Z,6.70
2022-12-06T23:55:37.807Z,5.28
2022-12-06T23:58:44.174Z,7.70
